createdAt,value
2017-12-13T00:02:23.901Z,2.90
2017-12-13T00:04:53.634Z,2.90
2017-12-13T00:07:23.439Z,2.90
2017-12-13T00:09:53.184Z,3.00
2017-12-13T00:12:22.941Z,3.00
2017-12-13T00:14:52.706Z,2.90
2017-12-13T00:17:22.433Z,2.90
2017-12-13T00:19:52.991Z,2.90
2017-12-13T00:22:32.052Z,2.90
2017-12-13T00:25:01.824Z,2.90
2017-12-13T00:27:32.337Z,2.90
2017-12-13T00:30:02.898Z,2.90
2017-12-13T00:32:32.666Z,2.80
2017-12-13T00:35:02.478Z,2.90
2017-12-13T00:37:32.342Z,2.90
2017-12-13T00:40:02.282Z,2.90
2017-12-13T00:42:32.054Z,2.90
2017-12-13T00:45:01.797Z,2.90
2017-12-13T00:47:31.580Z,2.90
2017-12-13T00:50:02.073Z,2.90
2017-12-13T00:52:31.851Z,2.90
2017-12-13T00:55:01.594Z,2.90
2017-12-13T00:57:31.863Z,3.00
2017-12-13T01:00:01.654Z,3.00
2017-12-13T01:02:31.130Z,3.00
2017-12-13T01:05:00.954Z,3.00
2017-12-13T01:07:30.712Z,2.90
2017-12-13T01:10:00.467Z,3.00
2017-12-13T01:12:30.241Z,2.90
2017-12-13T01:15:00.078Z,2.90
2017-12-13T01:17:29.801Z,3.00
2017-12-13T01:19:59.564Z,3.00
2017-12-13T01:22:29.385Z,2.90
2017-12-13T01:24:59.315Z,2.90
2017-12-13T01:27:29.076Z,3.00
2017-12-13T01:29:58.816Z,3.00
2017-12-13T01:32:28.571Z,3.00
2017-12-13T01:34:58.340Z,3.00
2017-12-13T01:37:27.766Z,3.00
2017-12-13T01:39:57.542Z,3.00
2017-12-13T01:42:28.074Z,3.10
2017-12-13T01:44:58.586Z,3.00
2017-12-13T01:47:29.099Z,3.10
2017-12-13T01:49:58.844Z,3.00
2017-12-13T01:52:28.287Z,3.00
2017-12-13T01:54:58.225Z,3.10
2017-12-13T01:57:27.993Z,3.10
2017-12-13T01:59:57.746Z,3.10
2017-12-13T02:02:27.471Z,3.20
2017-12-13T02:04:58.009Z,3.20
2017-12-13T02:07:28.169Z,3.10
2017-12-13T02:09:57.966Z,3.10
2017-12-13T02:12:27.467Z,3.10
2017-12-13T02:14:57.230Z,3.00
2017-12-13T02:17:26.985Z,3.00
2017-12-13T02:19:56.841Z,2.90
2017-12-13T02:22:25.909Z,2.90
2017-12-13T02:24:55.030Z,2.80
2017-12-13T02:27:24.750Z,2.80
2017-12-13T02:29:54.505Z,2.70
2017-12-13T02:32:25.002Z,2.60
2017-12-13T02:34:54.754Z,2.60
2017-12-13T02:37:25.243Z,2.50
2017-12-13T02:40:06.346Z,2.50
2017-12-13T02:42:35.803Z,2.50
2017-12-13T02:45:05.574Z,2.50
2017-12-13T02:47:35.311Z,2.40
2017-12-13T02:50:04.386Z,2.40
2017-12-13T02:52:34.236Z,2.40
2017-12-13T02:55:03.494Z,2.40
2017-12-13T02:57:33.352Z,2.40
2017-12-13T03:00:02.754Z,2.40
2017-12-13T03:02:33.041Z,2.40
2017-12-13T03:05:02.830Z,2.40
2017-12-13T03:07:32.602Z,2.50
2017-12-13T03:10:02.078Z,2.50
2017-12-13T03:12:31.819Z,2.50
2017-12-13T03:15:01.563Z,2.50
2017-12-13T03:17:32.106Z,2.60
2017-12-13T03:20:02.599Z,2.50
2017-12-13T03:22:32.680Z,2.50
2017-12-13T03:25:02.411Z,2.50
2017-12-13T03:27:32.165Z,2.40
2017-12-13T03:30:03.385Z,2.30
2017-12-13T03:32:33.200Z,2.30
2017-12-13T03:35:02.922Z,2.20
2017-12-13T03:37:32.714Z,2.10
2017-12-13T03:40:02.457Z,2.10
2017-12-13T03:42:32.958Z,2.10
2017-12-13T03:45:02.738Z,2.10
2017-12-13T03:47:32.470Z,2.10
2017-12-13T03:50:02.338Z,2.10
2017-12-13T03:52:32.843Z,2.00
2017-12-13T03:55:02.606Z,2.00
2017-12-13T03:57:32.329Z,2.00
2017-12-13T04:00:02.126Z,1.90
2017-12-13T04:02:31.594Z,1.90
2017-12-13T04:05:01.037Z,1.90
2017-12-13T04:07:30.794Z,1.80
2017-12-13T04:10:00.530Z,1.80
2017-12-13T04:12:30.265Z,1.70
2017-12-13T04:14:59.998Z,1.70
2017-12-13T04:17:29.778Z,1.60
2017-12-13T04:19:59.705Z,1.60
2017-12-13T04:22:29.429Z,1.60
2017-12-13T04:24:59.182Z,1.60
2017-12-13T04:27:28.901Z,1.60
2017-12-13T04:29:59.442Z,1.50
2017-12-13T04:32:29.210Z,1.50
2017-12-13T04:34:58.946Z,1.50
2017-12-13T04:37:28.685Z,1.40
2017-12-13T04:39:58.447Z,1.40
2017-12-13T04:42:28.177Z,1.40
2017-12-13T04:44:58.417Z,1.40
2017-12-13T04:47:28.908Z,1.30
2017-12-13T04:49:58.694Z,1.30
2017-12-13T04:52:28.439Z,1.30
2017-12-13T04:54:58.190Z,1.20
2017-12-13T04:57:27.926Z,1.20
2017-12-13T04:59:57.426Z,1.10
2017-12-13T05:02:27.182Z,1.10
2017-12-13T05:04:56.938Z,1.10
2017-12-13T05:07:26.682Z,1.10
2017-12-13T05:09:56.107Z,1.00
2017-12-13T05:12:25.846Z,1.00
2017-12-13T05:14:56.402Z,1.00
2017-12-13T05:17:26.142Z,1.00
2017-12-13T05:19:55.926Z,1.00
2017-12-13T05:22:25.682Z,1.00
2017-12-13T05:24:55.490Z,0.90
2017-12-13T05:27:25.213Z,0.90
2017-12-13T05:29:55.204Z,0.90
2017-12-13T05:32:24.983Z,0.90
2017-12-13T05:34:54.725Z,0.90
2017-12-13T05:37:24.497Z,0.90
2017-12-13T05:39:54.246Z,0.80
2017-12-13T05:42:24.012Z,0.80
2017-12-13T05:44:53.743Z,0.80
2017-12-13T05:47:23.656Z,0.80
2017-12-13T05:49:53.379Z,0.80
2017-12-13T05:52:23.170Z,0.70
2017-12-13T05:54:52.938Z,0.80
2017-12-13T05:57:22.649Z,0.70
2017-12-13T05:59:52.417Z,0.70
2017-12-13T06:02:22.186Z,0.70
2017-12-13T06:04:51.945Z,0.70
2017-12-13T06:07:21.749Z,0.70
2017-12-13T06:09:51.525Z,0.70
2017-12-13T06:12:22.032Z,0.70
2017-12-13T06:14:51.789Z,0.70
2017-12-13T06:17:22.281Z,0.60
2017-12-13T06:19:52.048Z,0.60
2017-12-13T06:22:21.775Z,0.70
2017-12-13T06:24:51.567Z,0.70
2017-12-13T06:27:21.294Z,0.70
2017-12-13T06:29:51.113Z,0.70
2017-12-13T06:32:24.559Z,0.70
2017-12-13T06:34:54.362Z,0.60
2017-12-13T06:37:24.117Z,0.60
2017-12-13T06:39:53.856Z,0.60
2017-12-13T06:42:23.604Z,0.60
2017-12-13T06:44:53.318Z,0.60
2017-12-13T06:47:23.069Z,0.50
2017-12-13T06:49:52.824Z,0.60
2017-12-13T06:52:22.611Z,0.50
2017-12-13T06:54:53.101Z,0.50
2017-12-13T06:57:22.526Z,0.50
2017-12-13T06:59:52.274Z,0.50
2017-12-13T07:02:21.994Z,0.50
2017-12-13T07:04:51.750Z,0.60
2017-12-13T07:07:23.046Z,0.50
2017-12-13T07:09:53.595Z,0.60
2017-12-13T07:12:23.332Z,0.50
2017-12-13T07:14:53.106Z,0.60
2017-12-13T07:17:22.842Z,0.60
2017-12-13T07:19:52.599Z,0.60
2017-12-13T07:22:23.125Z,0.60
2017-12-13T07:24:53.670Z,0.60
2017-12-13T07:27:23.826Z,0.60
2017-12-13T07:29:53.604Z,0.60
2017-12-13T07:32:23.758Z,0.60
2017-12-13T07:34:53.544Z,0.60
2017-12-13T07:37:22.994Z,0.60
2017-12-13T07:39:52.850Z,0.60
2017-12-13T07:42:22.307Z,0.70
2017-12-13T07:44:51.697Z,0.70
2017-12-13T07:47:21.466Z,0.70
2017-12-13T07:49:51.975Z,0.70
2017-12-13T07:52:21.729Z,0.70
2017-12-13T07:54:51.454Z,0.70
2017-12-13T07:57:21.235Z,0.70
2017-12-13T07:59:51.746Z,0.80
2017-12-13T08:02:21.529Z,0.70
2017-12-13T08:04:51.264Z,0.80
2017-12-13T08:07:21.042Z,0.80
2017-12-13T08:09:50.801Z,0.90
2017-12-13T08:12:21.294Z,1.00
2017-12-13T08:14:51.078Z,1.00
2017-12-13T08:17:20.796Z,1.10
2017-12-13T08:19:50.554Z,1.20
2017-12-13T08:22:20.283Z,1.20
2017-12-13T08:24:50.057Z,1.20
2017-12-13T08:27:19.784Z,1.30
2017-12-13T08:29:49.565Z,1.30
2017-12-13T08:32:19.296Z,1.40
2017-12-13T08:34:49.070Z,1.60
2017-12-13T08:37:18.802Z,1.70
2017-12-13T08:39:47.921Z,1.70
2017-12-13T08:42:17.676Z,1.80
2017-12-13T08:44:47.078Z,1.90
2017-12-13T08:47:17.635Z,2.00
2017-12-13T08:49:47.080Z,2.00
2017-12-13T08:52:16.820Z,2.20
2017-12-13T08:54:46.307Z,2.30
2017-12-13T08:57:16.111Z,2.40
2017-12-13T08:59:45.826Z,2.40
2017-12-13T09:02:15.565Z,2.50
2017-12-13T09:04:44.705Z,2.50
2017-12-13T09:07:13.780Z,2.60
2017-12-13T09:09:43.617Z,2.70
2017-12-13T09:12:12.689Z,2.70
2017-12-13T09:14:42.420Z,2.80
2017-12-13T09:17:12.167Z,2.90
2017-12-13T09:19:43.009Z,2.90
2017-12-13T09:22:13.486Z,3.10
2017-12-13T09:24:42.988Z,3.00
2017-12-13T09:27:12.704Z,3.20
2017-12-13T09:29:42.457Z,3.20
2017-12-13T09:32:12.221Z,3.30
2017-12-13T09:34:42.144Z,3.50
2017-12-13T09:37:11.890Z,3.50
2017-12-13T09:39:41.288Z,3.50
2017-12-13T09:42:11.002Z,3.40
2017-12-13T09:44:42.260Z,3.60
2017-12-13T09:47:11.954Z,3.60
2017-12-13T09:49:41.702Z,3.50
2017-12-13T09:52:11.410Z,3.50
2017-12-13T09:54:41.914Z,3.50
2017-12-13T09:57:11.631Z,3.60
2017-12-13T09:59:41.378Z,3.60
2017-12-13T10:02:10.754Z,3.70
2017-12-13T10:04:40.485Z,3.80
2017-12-13T10:07:10.242Z,4.00
2017-12-13T10:09:39.970Z,4.00
2017-12-13T10:12:09.701Z,3.90
2017-12-13T10:14:40.254Z,3.80
2017-12-13T10:17:09.966Z,3.80
2017-12-13T10:19:39.736Z,3.80
2017-12-13T10:22:10.599Z,3.90
2017-12-13T10:24:41.066Z,3.80
2017-12-13T10:27:10.820Z,3.80
2017-12-13T10:29:40.534Z,3.70
2017-12-13T10:32:11.038Z,3.70
2017-12-13T10:34:40.989Z,3.70
2017-12-13T10:37:11.526Z,4.10
2017-12-13T10:39:41.242Z,4.10
2017-12-13T10:42:10.978Z,4.60
2017-12-13T10:44:40.510Z,4.60
2017-12-13T10:47:10.382Z,4.40
2017-12-13T10:49:40.122Z,4.30
2017-12-13T10:52:09.861Z,4.10
2017-12-13T10:54:39.603Z,4.00
2017-12-13T10:57:09.329Z,3.80
2017-12-13T10:59:39.084Z,3.90
2017-12-13T11:02:08.142Z,4.00
2017-12-13T11:04:37.918Z,4.10
2017-12-13T11:07:07.354Z,4.20
2017-12-13T11:09:37.095Z,4.20
2017-12-13T11:12:06.919Z,4.10
2017-12-13T11:14:36.846Z,4.00
2017-12-13T11:17:07.351Z,4.30
2017-12-13T11:19:37.148Z,4.30
2017-12-13T11:22:06.939Z,4.50
2017-12-13T11:24:36.647Z,4.40
2017-12-13T11:27:06.377Z,4.40
2017-12-13T11:29:36.138Z,4.40
2017-12-13T11:32:05.852Z,4.50
2017-12-13T11:34:35.595Z,4.50
2017-12-13T11:37:12.425Z,4.60
2017-12-13T11:39:42.182Z,4.80
2017-12-13T11:42:11.951Z,5.20
2017-12-13T11:44:41.662Z,5.60
2017-12-13T11:47:11.570Z,5.80
2017-12-13T11:49:41.358Z,6.00
2017-12-13T11:52:10.780Z,6.10
2017-12-13T11:54:40.531Z,6.00
2017-12-13T11:57:10.277Z,6.10
2017-12-13T11:59:39.890Z,6.00
2017-12-13T12:02:11.748Z,6.10
2017-12-13T12:04:41.151Z,6.10
2017-12-13T12:07:10.966Z,6.10
2017-12-13T12:09:40.737Z,6.40
2017-12-13T12:12:11.386Z,6.50
2017-12-13T12:14:41.129Z,6.50
2017-12-13T12:17:12.845Z,6.00
2017-12-13T12:19:43.650Z,5.80
2017-12-13T12:22:13.438Z,5.60
2017-12-13T12:24:43.273Z,5.60
2017-12-13T12:27:12.993Z,5.70
2017-12-13T12:29:43.366Z,5.60
2017-12-13T12:32:14.484Z,6.00
2017-12-13T12:34:45.826Z,5.90
2017-12-13T12:37:15.761Z,6.00
2017-12-13T12:39:46.094Z,5.90
2017-12-13T12:42:15.990Z,5.90
2017-12-13T12:44:45.917Z,5.90
2017-12-13T12:47:15.732Z,6.00
2017-12-13T12:49:46.345Z,6.50
2017-12-13T12:52:16.193Z,6.50
2017-12-13T12:54:47.818Z,6.50
2017-12-13T12:57:17.600Z,6.50
2017-12-13T12:59:47.452Z,6.50
2017-12-13T13:02:17.192Z,6.10
2017-12-13T13:04:46.995Z,5.90
2017-12-13T13:07:16.824Z,5.80
2017-12-13T13:09:46.615Z,5.60
2017-12-13T13:12:16.330Z,5.60
2017-12-13T13:14:46.087Z,5.60
2017-12-13T13:17:15.477Z,5.30
2017-12-13T13:19:44.724Z,5.20
2017-12-13T13:22:14.349Z,5.30
2017-12-13T13:24:46.076Z,5.40
2017-12-13T13:27:17.098Z,5.40
2017-12-13T13:29:47.274Z,5.30
2017-12-13T13:32:17.025Z,5.30
2017-12-13T13:34:46.464Z,5.30
2017-12-13T13:37:16.166Z,5.30
2017-12-13T13:39:45.926Z,5.10
2017-12-13T13:42:15.354Z,5.00
2017-12-13T13:44:45.126Z,5.00
2017-12-13T13:47:15.487Z,4.90
2017-12-13T13:49:45.302Z,4.90
2017-12-13T13:52:16.048Z,4.80
2017-12-13T13:54:45.704Z,4.80
2017-12-13T13:57:16.297Z,4.70
2017-12-13T13:59:47.942Z,4.70
2017-12-13T14:02:17.698Z,4.70
2017-12-13T14:04:47.413Z,4.70
2017-12-13T14:07:17.158Z,4.80
2017-12-13T14:09:46.882Z,4.70
2017-12-13T14:12:16.847Z,4.70
2017-12-13T14:14:46.603Z,4.70
2017-12-13T14:17:16.367Z,4.60
2017-12-13T14:19:46.117Z,4.60
2017-12-13T14:22:15.524Z,4.50
2017-12-13T14:24:45.076Z,4.60
2017-12-13T14:27:15.324Z,4.50
2017-12-13T14:29:45.071Z,4.50
2017-12-13T14:32:14.789Z,4.40
2017-12-13T14:34:45.313Z,4.30
2017-12-13T14:37:20.483Z,4.30
2017-12-13T14:39:51.266Z,4.40
2017-12-13T14:42:21.113Z,4.30
2017-12-13T14:44:53.047Z,4.30
2017-12-13T14:47:22.903Z,4.30
2017-12-13T14:49:53.370Z,4.20
2017-12-13T14:52:23.135Z,4.20
2017-12-13T14:54:53.618Z,4.20
2017-12-13T14:57:23.374Z,4.20
2017-12-13T14:59:53.852Z,4.10
2017-12-13T15:02:23.606Z,4.10
2017-12-13T15:04:54.097Z,4.10
2017-12-13T15:07:23.672Z,4.10
2017-12-13T15:09:53.376Z,4.10
2017-12-13T15:12:23.123Z,4.10
2017-12-13T15:14:53.038Z,4.10
2017-12-13T15:17:22.757Z,4.10
2017-12-13T15:19:52.548Z,4.10
2017-12-13T15:22:22.330Z,4.10
2017-12-13T15:24:52.082Z,4.10
2017-12-13T15:27:21.838Z,4.10
2017-12-13T15:29:52.364Z,4.10
2017-12-13T15:32:22.161Z,4.00
2017-12-13T15:34:51.878Z,4.00
2017-12-13T15:37:21.635Z,4.00
2017-12-13T15:39:51.366Z,4.00
2017-12-13T15:42:21.103Z,4.00
2017-12-13T15:44:50.953Z,4.00
2017-12-13T15:47:21.454Z,3.90
2017-12-13T15:49:51.977Z,3.90
2017-12-13T15:52:21.702Z,3.90
2017-12-13T15:54:52.274Z,3.90
2017-12-13T15:57:21.730Z,3.90
2017-12-13T15:59:51.430Z,3.90
2017-12-13T16:02:21.177Z,3.80
2017-12-13T16:04:51.710Z,3.80
2017-12-13T16:07:22.182Z,3.80
2017-12-13T16:09:51.661Z,3.70
2017-12-13T16:12:21.401Z,3.80
2017-12-13T16:14:51.163Z,3.80
2017-12-13T16:17:21.688Z,3.70
2017-12-13T16:19:52.188Z,3.70
2017-12-13T16:22:21.930Z,3.70
2017-12-13T16:24:52.568Z,3.70
2017-12-13T16:27:23.098Z,3.70
2017-12-13T16:29:52.850Z,3.60
2017-12-13T16:32:22.565Z,3.70
2017-12-13T16:34:52.328Z,3.70
2017-12-13T16:37:22.807Z,3.70
2017-12-13T16:39:52.541Z,3.60
2017-12-13T16:42:22.286Z,3.70
2017-12-13T16:44:52.021Z,3.60
2017-12-13T16:47:21.726Z,3.60
2017-12-13T16:49:51.640Z,3.60
2017-12-13T16:52:21.350Z,3.60
2017-12-13T16:54:51.094Z,3.70
2017-12-13T16:57:20.814Z,3.70
2017-12-13T16:59:50.706Z,3.70
2017-12-13T17:02:20.196Z,3.70
2017-12-13T17:04:49.938Z,3.80
2017-12-13T17:07:19.074Z,3.80
2017-12-13T17:09:49.576Z,3.80
2017-12-13T17:12:18.985Z,3.80
2017-12-13T17:14:48.697Z,3.80
2017-12-13T17:19:54.878Z,3.70
2017-12-13T17:22:24.595Z,3.70
2017-12-13T17:24:54.368Z,3.70
2017-12-13T17:27:24.102Z,3.70
2017-12-13T17:29:54.188Z,3.80
2017-12-13T17:32:23.930Z,3.70
2017-12-13T17:34:55.550Z,3.60
2017-12-13T17:37:24.967Z,3.60
2017-12-13T17:39:54.738Z,3.60
2017-12-13T17:42:24.450Z,3.50
2017-12-13T17:44:55.136Z,3.20
2017-12-13T17:47:25.693Z,3.00
2017-12-13T17:49:55.856Z,2.80
2017-12-13T17:52:25.576Z,2.80
2017-12-13T17:54:55.330Z,2.70
2017-12-13T17:57:25.809Z,2.60
2017-12-13T17:59:55.557Z,2.70
2017-12-13T18:02:25.303Z,2.70
2017-12-13T18:04:55.922Z,2.70
2017-12-13T18:07:26.495Z,2.80
2017-12-13T18:09:56.277Z,2.80
2017-12-13T18:12:26.788Z,2.90
2017-12-13T18:14:56.725Z,2.90
2017-12-13T18:17:26.447Z,3.00
2017-12-13T18:19:56.191Z,3.00
2017-12-13T18:22:25.971Z,3.10
2017-12-13T18:24:55.839Z,3.10
2017-12-13T18:27:26.387Z,3.10
2017-12-13T18:29:56.183Z,3.10
2017-12-13T18:32:26.167Z,3.10
2017-12-13T18:34:55.724Z,3.00
2017-12-13T18:37:26.246Z,2.90
2017-12-13T18:39:56.772Z,2.80
2017-12-13T18:42:26.486Z,2.80
2017-12-13T18:44:57.093Z,2.70
2017-12-13T18:47:26.861Z,2.60
2017-12-13T18:49:56.625Z,2.60
2017-12-13T18:52:26.378Z,2.50
2017-12-13T18:54:56.180Z,2.40
2017-12-13T18:57:26.382Z,2.30
2017-12-13T18:59:55.495Z,2.30
2017-12-13T19:02:24.630Z,2.20
2017-12-13T19:04:54.381Z,2.20
2017-12-13T19:07:24.101Z,2.20
2017-12-13T19:09:53.842Z,2.20
2017-12-13T19:12:23.555Z,2.10
2017-12-13T19:14:53.316Z,2.00
2017-12-13T19:17:23.025Z,2.00
2017-12-13T19:19:52.928Z,1.90
2017-12-13T19:22:22.636Z,1.90
2017-12-13T19:24:52.390Z,1.70
2017-12-13T19:27:22.557Z,1.60
2017-12-13T19:29:52.350Z,1.60
2017-12-13T19:32:22.948Z,1.60
2017-12-13T19:34:52.932Z,1.60
2017-12-13T19:37:23.650Z,1.60
2017-12-13T19:39:53.366Z,1.50
2017-12-13T19:42:22.770Z,1.40
2017-12-13T19:44:52.545Z,1.50
2017-12-13T19:47:22.296Z,1.50
2017-12-13T19:49:52.122Z,1.40
2017-12-13T19:52:21.853Z,1.40
2017-12-13T19:54:51.767Z,1.40
2017-12-13T19:57:21.501Z,1.40
2017-12-13T19:59:52.041Z,1.50
2017-12-13T20:02:22.071Z,1.40
2017-12-13T20:04:51.503Z,1.40
2017-12-13T20:07:21.305Z,1.40
2017-12-13T20:09:50.858Z,1.40
2017-12-13T20:12:21.469Z,1.40
2017-12-13T20:14:50.541Z,1.40
2017-12-13T20:17:20.208Z,1.50
2017-12-13T20:19:50.758Z,1.40
2017-12-13T20:22:20.513Z,1.40
2017-12-13T20:24:50.240Z,1.50
2017-12-13T20:27:20.789Z,1.50
2017-12-13T20:29:51.287Z,1.50
2017-12-13T20:32:21.031Z,1.50
2017-12-13T20:34:50.814Z,1.50
2017-12-13T20:37:20.534Z,1.60
2017-12-13T20:39:51.050Z,1.60
2017-12-13T20:42:20.761Z,1.60
2017-12-13T20:44:50.545Z,1.60
2017-12-13T20:47:20.294Z,1.60
2017-12-13T20:49:50.895Z,1.60
2017-12-13T20:52:20.676Z,1.60
2017-12-13T20:54:50.423Z,1.60
2017-12-13T20:57:20.175Z,1.60
2017-12-13T20:59:50.690Z,1.60
2017-12-13T21:02:20.421Z,1.60
2017-12-13T21:04:50.259Z,1.70
2017-12-13T21:07:20.005Z,1.60
2017-12-13T21:09:49.917Z,1.70
2017-12-13T21:12:19.638Z,1.70
2017-12-13T21:14:49.494Z,1.70
2017-12-13T21:17:19.211Z,1.60
2017-12-13T21:19:48.714Z,1.70
2017-12-13T21:22:18.421Z,1.70
2017-12-13T21:24:48.238Z,1.70
2017-12-13T21:27:17.959Z,1.70
2017-12-13T21:29:47.703Z,1.80
2017-12-13T21:32:17.472Z,1.80
2017-12-13T21:34:47.194Z,1.80
2017-12-13T21:37:16.970Z,1.80
2017-12-13T21:39:47.770Z,1.90
2017-12-13T21:42:17.537Z,1.90
2017-12-13T21:44:47.258Z,2.00
2017-12-13T21:47:17.276Z,2.00
2017-12-13T21:49:47.022Z,2.00
2017-12-13T21:52:16.789Z,2.00
2017-12-13T21:54:46.506Z,2.00
2017-12-13T21:57:16.418Z,2.00
2017-12-13T21:59:46.150Z,2.00
2017-12-13T22:02:15.894Z,2.10
2017-12-13T22:04:45.378Z,2.10
2017-12-13T22:07:15.734Z,2.10
2017-12-13T22:09:47.052Z,2.10
2017-12-13T22:12:16.812Z,2.10
2017-12-13T22:14:47.406Z,2.10
2017-12-13T22:17:17.166Z,2.10
2017-12-13T22:19:46.940Z,2.20
2017-12-13T22:22:16.676Z,2.20
2017-12-13T22:24:47.194Z,2.20
2017-12-13T22:27:17.675Z,2.20
2017-12-13T22:29:47.624Z,2.20
2017-12-13T22:32:17.480Z,2.20
2017-12-13T22:34:48.010Z,2.20
2017-12-13T22:37:17.720Z,2.20
2017-12-13T22:39:47.510Z,2.20
2017-12-13T22:42:17.977Z,2.30
2017-12-13T22:44:47.739Z,2.20
2017-12-13T22:47:17.457Z,2.30
2017-12-13T22:49:47.212Z,2.30
2017-12-13T22:52:16.955Z,2.30
2017-12-13T22:54:46.734Z,2.30
2017-12-13T22:57:17.229Z,2.30
2017-12-13T22:59:47.754Z,2.30
2017-12-13T23:02:17.675Z,2.30
2017-12-13T23:04:48.191Z,2.30
2017-12-13T23:07:18.694Z,2.30
2017-12-13T23:09:48.445Z,2.30
2017-12-13T23:12:18.434Z,2.30
2017-12-13T23:14:48.246Z,2.30
2017-12-13T23:17:18.020Z,2.30
2017-12-13T23:19:47.755Z,2.30
2017-12-13T23:22:17.524Z,2.30
2017-12-13T23:24:47.245Z,2.30
2017-12-13T23:27:16.663Z,2.40
2017-12-13T23:29:46.414Z,2.30
2017-12-13T23:32:15.951Z,2.40
2017-12-13T23:34:46.129Z,2.40
2017-12-13T23:37:15.869Z,2.40
2017-12-13T23:39:46.378Z,2.40
2017-12-13T23:42:15.807Z,2.40
2017-12-13T23:44:46.349Z,2.40
2017-12-13T23:47:16.311Z,2.40
2017-12-13T23:49:46.023Z,2.40
2017-12-13T23:52:15.764Z,2.40
2017-12-13T23:54:46.238Z,2.50
2017-12-13T23:57:16.001Z,2.40
2017-12-13T23:59:46.498Z,2.50
